sensor_id;sensor_type;location;lat;lon;timestamp;temperature;humidity
11083;DHT22;5595;50.186;8.468;2023-02-11T00:00:13;2.90;99.90
11083;DHT22;5595;50.186;8.468;2023-02-11T00:02:40;2.80;99.90
11083;DHT22;5595;50.186;8.468;2023-02-11T00:05:08;3.00;99.90
11083;DHT22;5595;50.186;8.468;2023-02-11T00:07:35;2.90;99.90
11083;DHT22;5595;50.186;8.468;2023-02-11T00:10:04;2.90;99.90
11083;DHT22;5595;50.186;8.468;2023-02-11T00:12:32;2.90;99.90
11083;DHT22;5595;50.186;8.468;2023-02-11T00:14:59;2.90;99.90
11083;DHT22;5595;50.186;8.468;2023-02-11T00:17:26;2.80;99.90
11083;DHT22;5595;50.186;8.468;2023-02-11T00:19:53;2.80;99.90
11083;DHT22;5595;50.186;8.468;2023-02-11T00:22:20;2.90;99.90
11083;DHT22;5595;50.186;8.468;2023-02-11T00:24:47;3.00;99.90
11083;DHT22;5595;50.186;8.468;2023-02-11T00:27:16;3.20;99.90
11083;DHT22;5595;50.186;8.468;2023-02-11T00:29:42;3.00;99.90
11083;DHT22;5595;50.186;8.468;2023-02-11T00:32:09;3.10;99.90
11083;DHT22;5595;50.186;8.468;2023-02-11T00:34:36;3.00;99.90
11083;DHT22;5595;50.186;8.468;2023-02-11T00:37:05;3.00;99.90
11083;DHT22;5595;50.186;8.468;2023-02-11T00:39:32;3.00;99.90
11083;DHT22;5595;50.186;8.468;2023-02-11T00:41:59;3.10;99.90
11083;DHT22;5595;50.186;8.468;2023-02-11T00:44:27;3.10;99.90
11083;DHT22;5595;50.186;8.468;2023-02-11T00:46:54;3.10;99.90
11083;DHT22;5595;50.186;8.468;2023-02-11T00:49:21;3.10;99.90
11083;DHT22;5595;50.186;8.468;2023-02-11T00:51:48;3.20;99.90
11083;DHT22;5595;50.186;8.468;2023-02-11T00:54:15;3.20;99.90
11083;DHT22;5595;50.186;8.468;2023-02-11T00:56:42;3.20;99.90
11083;DHT22;5595;50.186;8.468;2023-02-11T00:59:08;3.30;99.90
11083;DHT22;5595;50.186;8.468;2023-02-11T01:01:37;3.20;99.90
11083;DHT22;5595;50.186;8.468;2023-02-11T01:04:04;3.20;99.90
11083;DHT22;5595;50.186;8.468;2023-02-11T01:06:31;3.30;99.90
11083;DHT22;5595;50.186;8.468;2023-02-11T01:08:58;3.20;99.90
11083;DHT22;5595;50.186;8.468;2023-02-11T01:11:25;3.30;99.90
11083;DHT22;5595;50.186;8.468;2023-02-11T01:13:51;3.20;99.90
11083;DHT22;5595;50.186;8.468;2023-02-11T01:16:20;3.30;99.90
11083;DHT22;5595;50.186;8.468;2023-02-11T01:18:49;3.20;99.90
11083;DHT22;5595;50.186;8.468;2023-02-11T01:21:16;3.20;99.90
11083;DHT22;5595;50.186;8.468;2023-02-11T01:23:43;3.20;99.90
11083;DHT22;5595;50.186;8.468;2023-02-11T01:26:10;3.20;99.90
11083;DHT22;5595;50.186;8.468;2023-02-11T01:28:37;3.40;99.90
11083;DHT22;5595;50.186;8.468;2023-02-11T01:31:04;3.30;99.90
11083;DHT22;5595;50.186;8.468;2023-02-11T01:33:31;3.20;99.90
11083;DHT22;5595;50.186;8.468;2023-02-11T01:36:02;3.20;99.90
11083;DHT22;5595;50.186;8.468;2023-02-11T01:38:29;3.30;99.90
11083;DHT22;5595;50.186;8.468;2023-02-11T01:40:59;3.30;99.90
11083;DHT22;5595;50.186;8.468;2023-02-11T01:43:28;3.30;99.90
11083;DHT22;5595;50.186;8.468;2023-02-11T01:46:00;3.30;99.90
11083;DHT22;5595;50.186;8.468;2023-02-11T01:48:33;3.30;99.90
11083;DHT22;5595;50.186;8.468;2023-02-11T01:51:06;3.20;99.90
11083;DHT22;5595;50.186;8.468;2023-02-11T01:53:35;3.30;99.90
11083;DHT22;5595;50.186;8.468;2023-02-11T01:56:21;3.30;99.90
11083;DHT22;5595;50.186;8.468;2023-02-11T01:59:12;3.30;99.90
11083;DHT22;5595;50.186;8.468;2023-02-11T02:01:42;3.40;99.90
11083;DHT22;5595;50.186;8.468;2023-02-11T02:04:14;3.30;99.90
11083;DHT22;5595;50.186;8.468;2023-02-11T02:06:48;3.30;99.90
11083;DHT22;5595;50.186;8.468;2023-02-11T02:09:19;3.40;99.90
11083;DHT22;5595;50.186;8.468;2023-02-11T02:11:47;3.30;99.90
11083;DHT22;5595;50.186;8.468;2023-02-11T02:14:14;3.30;99.90
11083;DHT22;5595;50.186;8.468;2023-02-11T02:16:41;3.30;99.90
11083;DHT22;5595;50.186;8.468;2023-02-11T02:19:46;3.40;99.90
11083;DHT22;5595;50.186;8.468;2023-02-11T02:22:56;3.40;99.90
11083;DHT22;5595;50.186;8.468;2023-02-11T02:29:05;3.40;99.90
11083;DHT22;5595;50.186;8.468;2023-02-11T02:34:51;3.40;99.90
11083;DHT22;5595;50.186;8.468;2023-02-11T02:37:23;3.50;99.90
11083;DHT22;5595;50.186;8.468;2023-02-11T02:39:54;3.30;99.90
11083;DHT22;5595;50.186;8.468;2023-02-11T02:42:23;3.30;99.90
11083;DHT22;5595;50.186;8.468;2023-02-11T02:44:51;3.30;99.90
11083;DHT22;5595;50.186;8.468;2023-02-11T02:47:18;3.30;99.90
11083;DHT22;5595;50.186;8.468;2023-02-11T02:49:45;3.40;99.90
11083;DHT22;5595;50.186;8.468;2023-02-11T02:52:25;3.30;99.90
11083;DHT22;5595;50.186;8.468;2023-02-11T02:55:11;3.40;99.90
11083;DHT22;5595;50.186;8.468;2023-02-11T02:57:51;3.40;99.90
11083;DHT22;5595;50.186;8.468;2023-02-11T03:00:27;3.40;99.90
11083;DHT22;5595;50.186;8.468;2023-02-11T03:03:10;3.30;99.90
11083;DHT22;5595;50.186;8.468;2023-02-11T03:05:48;3.30;99.90
11083;DHT22;5595;50.186;8.468;2023-02-11T03:08:24;3.30;99.90
11083;DHT22;5595;50.186;8.468;2023-02-11T03:10:53;3.30;99.90
11083;DHT22;5595;50.186;8.468;2023-02-11T03:13:25;3.30;99.90
11083;DHT22;5595;50.186;8.468;2023-02-11T03:15:55;3.30;99.90
11083;DHT22;5595;50.186;8.468;2023-02-11T03:18:26;3.40;99.90
11083;DHT22;5595;50.186;8.468;2023-02-11T03:20:55;3.30;99.90
11083;DHT22;5595;50.186;8.468;2023-02-11T03:23:27;3.30;99.90
11083;DHT22;5595;50.186;8.468;2023-02-11T03:25:57;3.20;99.90
11083;DHT22;5595;50.186;8.468;2023-02-11T03:28:29;3.20;99.90
11083;DHT22;5595;50.186;8.468;2023-02-11T03:31:07;3.20;99.90
11083;DHT22;5595;50.186;8.468;2023-02-11T03:33:39;3.20;99.90
11083;DHT22;5595;50.186;8.468;2023-02-11T03:36:11;3.20;99.90
11083;DHT22;5595;50.186;8.468;2023-02-11T03:38:45;3.20;99.90
11083;DHT22;5595;50.186;8.468;2023-02-11T03:41:15;3.10;99.90
11083;DHT22;5595;50.186;8.468;2023-02-11T03:43:45;3.10;99.90
11083;DHT22;5595;50.186;8.468;2023-02-11T03:46:16;3.10;99.90
11083;DHT22;5595;50.186;8.468;2023-02-11T03:48:47;2.90;99.90
11083;DHT22;5595;50.186;8.468;2023-02-11T03:51:15;3.00;99.90
11083;DHT22;5595;50.186;8.468;2023-02-11T03:53:45;3.00;99.90
11083;DHT22;5595;50.186;8.468;2023-02-11T03:56:16;2.90;99.90
11083;DHT22;5595;50.186;8.468;2023-02-11T03:58:43;2.90;99.90
11083;DHT22;5595;50.186;8.468;2023-02-11T04:01:11;2.90;99.90
11083;DHT22;5595;50.186;8.468;2023-02-11T04:03:38;2.80;99.90
11083;DHT22;5595;50.186;8.468;2023-02-11T04:06:05;2.60;99.90
11083;DHT22;5595;50.186;8.468;2023-02-11T04:08:32;2.60;99.90
11083;DHT22;5595;50.186;8.468;2023-02-11T04:11:00;2.50;99.90
11083;DHT22;5595;50.186;8.468;2023-02-11T04:13:27;2.40;99.90
11083;DHT22;5595;50.186;8.468;2023-02-11T04:15:54;2.30;99.90
11083;DHT22;5595;50.186;8.468;2023-02-11T04:18:21;2.20;99.90
11083;DHT22;5595;50.186;8.468;2023-02-11T04:20:49;2.20;99.90
11083;DHT22;5595;50.186;8.468;2023-02-11T04:23:16;2.20;99.90
11083;DHT22;5595;50.186;8.468;2023-02-11T04:25:43;2.10;99.90
11083;DHT22;5595;50.186;8.468;2023-02-11T04:28:11;2.20;99.90
11083;DHT22;5595;50.186;8.468;2023-02-11T04:30:38;2.10;99.90
11083;DHT22;5595;50.186;8.468;2023-02-11T04:33:05;2.10;99.90
11083;DHT22;5595;50.186;8.468;2023-02-11T04:35:32;2.10;99.90
11083;DHT22;5595;50.186;8.468;2023-02-11T04:37:58;2.30;99.90
11083;DHT22;5595;50.186;8.468;2023-02-11T04:40:25;2.30;99.90
11083;DHT22;5595;50.186;8.468;2023-02-11T04:42:52;2.40;99.90
11083;DHT22;5595;50.186;8.468;2023-02-11T04:45:21;2.50;99.90
11083;DHT22;5595;50.186;8.468;2023-02-11T04:47:47;2.50;99.90
11083;DHT22;5595;50.186;8.468;2023-02-11T04:50:14;2.40;99.90
11083;DHT22;5595;50.186;8.468;2023-02-11T04:52:41;2.50;99.90
11083;DHT22;5595;50.186;8.468;2023-02-11T04:55:08;2.50;99.90
11083;DHT22;5595;50.186;8.468;2023-02-11T04:57:35;2.60;99.90
11083;DHT22;5595;50.186;8.468;2023-02-11T05:00:02;2.60;99.90
11083;DHT22;5595;50.186;8.468;2023-02-11T05:02:30;2.70;99.90
11083;DHT22;5595;50.186;8.468;2023-02-11T05:04:57;2.90;99.90
11083;DHT22;5595;50.186;8.468;2023-02-11T05:07:24;2.80;99.90
11083;DHT22;5595;50.186;8.468;2023-02-11T05:09:51;2.80;99.90
11083;DHT22;5595;50.186;8.468;2023-02-11T05:12:18;2.80;99.90
11083;DHT22;5595;50.186;8.468;2023-02-11T05:14:45;2.80;99.90
11083;DHT22;5595;50.186;8.468;2023-02-11T05:17:12;2.80;99.90
11083;DHT22;5595;50.186;8.468;2023-02-11T05:19:40;2.70;99.90
11083;DHT22;5595;50.186;8.468;2023-02-11T05:22:07;2.70;99.90
11083;DHT22;5595;50.186;8.468;2023-02-11T05:24:34;2.60;99.90
11083;DHT22;5595;50.186;8.468;2023-02-11T05:27:01;2.90;99.90
11083;DHT22;5595;50.186;8.468;2023-02-11T05:29:28;2.60;99.90
11083;DHT22;5595;50.186;8.468;2023-02-11T05:31:55;2.60;99.90
11083;DHT22;5595;50.186;8.468;2023-02-11T05:34:23;2.60;99.90
11083;DHT22;5595;50.186;8.468;2023-02-11T05:36:52;2.70;99.90
11083;DHT22;5595;50.186;8.468;2023-02-11T05:39:18;2.70;99.90
11083;DHT22;5595;50.186;8.468;2023-02-11T05:41:45;2.80;99.90
11083;DHT22;5595;50.186;8.468;2023-02-11T05:44:12;2.80;99.90
11083;DHT22;5595;50.186;8.468;2023-02-11T05:46:39;2.80;99.90
11083;DHT22;5595;50.186;8.468;2023-02-11T05:49:06;2.80;99.90
11083;DHT22;5595;50.186;8.468;2023-02-11T05:51:33;2.90;99.90
11083;DHT22;5595;50.186;8.468;2023-02-11T05:54:01;2.80;99.90
11083;DHT22;5595;50.186;8.468;2023-02-11T05:56:28;2.90;99.90
11083;DHT22;5595;50.186;8.468;2023-02-11T05:58:55;3.00;99.90
11083;DHT22;5595;50.186;8.468;2023-02-11T06:01:24;2.90;99.90
11083;DHT22;5595;50.186;8.468;2023-02-11T06:03:51;3.00;99.90
11083;DHT22;5595;50.186;8.468;2023-02-11T06:06:17;2.90;99.90
11083;DHT22;5595;50.186;8.468;2023-02-11T06:08:44;3.00;99.90
11083;DHT22;5595;50.186;8.468;2023-02-11T06:11:15;3.00;99.90
11083;DHT22;5595;50.186;8.468;2023-02-11T06:13:41;3.00;99.90
11083;DHT22;5595;50.186;8.468;2023-02-11T06:16:09;3.00;99.90
11083;DHT22;5595;50.186;8.468;2023-02-11T06:18:36;2.90;99.90
11083;DHT22;5595;50.186;8.468;2023-02-11T06:21:06;2.80;99.90
11083;DHT22;5595;50.186;8.468;2023-02-11T06:23:33;2.90;99.90
11083;DHT22;5595;50.186;8.468;2023-02-11T06:26:01;2.90;99.90
11083;DHT22;5595;50.186;8.468;2023-02-11T06:28:29;2.70;99.90
11083;DHT22;5595;50.186;8.468;2023-02-11T06:30:56;3.00;99.90
11083;DHT22;5595;50.186;8.468;2023-02-11T06:33:24;2.80;99.90
11083;DHT22;5595;50.186;8.468;2023-02-11T06:35:50;2.80;99.90
11083;DHT22;5595;50.186;8.468;2023-02-11T06:38:17;2.60;99.90
11083;DHT22;5595;50.186;8.468;2023-02-11T06:40:46;2.60;99.90
11083;DHT22;5595;50.186;8.468;2023-02-11T06:43:13;2.50;99.90
11083;DHT22;5595;50.186;8.468;2023-02-11T06:45:42;2.40;99.90
11083;DHT22;5595;50.186;8.468;2023-02-11T06:48:09;2.40;99.90
11083;DHT22;5595;50.186;8.468;2023-02-11T06:50:37;2.50;99.90
11083;DHT22;5595;50.186;8.468;2023-02-11T06:53:04;2.40;99.90
11083;DHT22;5595;50.186;8.468;2023-02-11T06:55:30;2.30;99.90
11083;DHT22;5595;50.186;8.468;2023-02-11T06:58:00;2.40;99.90
11083;DHT22;5595;50.186;8.468;2023-02-11T07:00:27;2.40;99.90
11083;DHT22;5595;50.186;8.468;2023-02-11T07:02:55;2.50;99.90
11083;DHT22;5595;50.186;8.468;2023-02-11T07:05:22;2.50;99.90
11083;DHT22;5595;50.186;8.468;2023-02-11T07:07:49;2.60;99.90
11083;DHT22;5595;50.186;8.468;2023-02-11T07:10:16;2.70;99.90
11083;DHT22;5595;50.186;8.468;2023-02-11T07:12:43;2.80;99.90
11083;DHT22;5595;50.186;8.468;2023-02-11T07:15:10;2.80;99.90
11083;DHT22;5595;50.186;8.468;2023-02-11T07:17:37;2.90;99.90
11083;DHT22;5595;50.186;8.468;2023-02-11T07:20:06;2.90;99.90
11083;DHT22;5595;50.186;8.468;2023-02-11T07:22:33;3.00;99.90
11083;DHT22;5595;50.186;8.468;2023-02-11T07:25:00;3.10;99.90
11083;DHT22;5595;50.186;8.468;2023-02-11T07:27:27;3.20;99.90
11083;DHT22;5595;50.186;8.468;2023-02-11T07:29:54;3.30;99.90
11083;DHT22;5595;50.186;8.468;2023-02-11T07:32:21;3.30;99.90
11083;DHT22;5595;50.186;8.468;2023-02-11T07:34:47;3.50;99.90
11083;DHT22;5595;50.186;8.468;2023-02-11T07:37:16;3.70;99.90
11083;DHT22;5595;50.186;8.468;2023-02-11T07:39:43;3.70;99.90
11083;DHT22;5595;50.186;8.468;2023-02-11T07:42:09;3.90;99.90
11083;DHT22;5595;50.186;8.468;2023-02-11T07:44:36;3.80;99.90
11083;DHT22;5595;50.186;8.468;2023-02-11T07:47:03;3.80;99.90
11083;DHT22;5595;50.186;8.468;2023-02-11T07:49:30;3.80;99.90
11083;DHT22;5595;50.186;8.468;2023-02-11T07:51:57;3.80;99.90
11083;DHT22;5595;50.186;8.468;2023-02-11T07:54:25;3.80;99.90
11083;DHT22;5595;50.186;8.468;2023-02-11T07:56:52;3.80;99.90
11083;DHT22;5595;50.186;8.468;2023-02-11T07:59:19;3.80;99.90
11083;DHT22;5595;50.186;8.468;2023-02-11T08:01:46;3.80;99.90
11083;DHT22;5595;50.186;8.468;2023-02-11T08:04:13;3.90;99.90
11083;DHT22;5595;50.186;8.468;2023-02-11T08:06:41;4.00;99.90
11083;DHT22;5595;50.186;8.468;2023-02-11T08:09:13;4.00;99.90
11083;DHT22;5595;50.186;8.468;2023-02-11T08:11:42;4.10;99.90
11083;DHT22;5595;50.186;8.468;2023-02-11T08:14:09;4.20;99.90
11083;DHT22;5595;50.186;8.468;2023-02-11T08:16:37;4.20;99.90
11083;DHT22;5595;50.186;8.468;2023-02-11T08:19:07;4.30;99.90
11083;DHT22;5595;50.186;8.468;2023-02-11T08:21:36;4.30;99.90
11083;DHT22;5595;50.186;8.468;2023-02-11T08:24:04;4.80;99.90
11083;DHT22;5595;50.186;8.468;2023-02-11T08:26:32;4.70;99.90
11083;DHT22;5595;50.186;8.468;2023-02-11T08:29:05;4.60;99.90
11083;DHT22;5595;50.186;8.468;2023-02-11T08:31:34;5.00;99.90
11083;DHT22;5595;50.186;8.468;2023-02-11T08:34:07;4.80;99.90
11083;DHT22;5595;50.186;8.468;2023-02-11T08:36:37;5.20;99.90
11083;DHT22;5595;50.186;8.468;2023-02-11T08:39:07;5.00;99.90
11083;DHT22;5595;50.186;8.468;2023-02-11T08:41:34;5.10;99.90
11083;DHT22;5595;50.186;8.468;2023-02-11T08:44:05;5.10;99.90
11083;DHT22;5595;50.186;8.468;2023-02-11T08:46:32;5.20;99.90
11083;DHT22;5595;50.186;8.468;2023-02-11T08:48:59;5.20;99.90
11083;DHT22;5595;50.186;8.468;2023-02-11T08:51:27;5.30;99.90
11083;DHT22;5595;50.186;8.468;2023-02-11T08:53:55;5.30;99.90
11083;DHT22;5595;50.186;8.468;2023-02-11T08:56:22;5.30;99.90
11083;DHT22;5595;50.186;8.468;2023-02-11T08:58:50;5.40;99.90
11083;DHT22;5595;50.186;8.468;2023-02-11T09:01:20;5.50;99.90
11083;DHT22;5595;50.186;8.468;2023-02-11T09:03:47;5.80;99.90
11083;DHT22;5595;50.186;8.468;2023-02-11T09:06:14;5.70;99.90
11083;DHT22;5595;50.186;8.468;2023-02-11T09:08:43;5.80;99.90
11083;DHT22;5595;50.186;8.468;2023-02-11T09:11:10;5.80;99.90
11083;DHT22;5595;50.186;8.468;2023-02-11T09:13:40;5.80;99.90
11083;DHT22;5595;50.186;8.468;2023-02-11T09:16:07;5.90;99.90
11083;DHT22;5595;50.186;8.468;2023-02-11T09:18:36;6.00;99.90
11083;DHT22;5595;50.186;8.468;2023-02-11T09:21:07;6.10;99.90
11083;DHT22;5595;50.186;8.468;2023-02-11T09:23:34;6.10;99.90
11083;DHT22;5595;50.186;8.468;2023-02-11T09:26:04;6.10;99.90
11083;DHT22;5595;50.186;8.468;2023-02-11T09:28:31;6.40;99.90
11083;DHT22;5595;50.186;8.468;2023-02-11T09:31:03;5.90;99.90
11083;DHT22;5595;50.186;8.468;2023-02-11T09:33:30;6.00;99.90
11083;DHT22;5595;50.186;8.468;2023-02-11T09:36:00;6.00;99.90
11083;DHT22;5595;50.186;8.468;2023-02-11T09:38:28;6.00;99.90
11083;DHT22;5595;50.186;8.468;2023-02-11T09:40:55;5.90;99.90
11083;DHT22;5595;50.186;8.468;2023-02-11T09:43:25;5.90;99.90
11083;DHT22;5595;50.186;8.468;2023-02-11T09:45:55;5.90;99.90
11083;DHT22;5595;50.186;8.468;2023-02-11T09:48:23;6.00;99.90
11083;DHT22;5595;50.186;8.468;2023-02-11T09:50:53;6.00;99.90
11083;DHT22;5595;50.186;8.468;2023-02-11T09:53:24;6.00;99.90
11083;DHT22;5595;50.186;8.468;2023-02-11T09:55:52;6.10;99.90
11083;DHT22;5595;50.186;8.468;2023-02-11T09:58:25;6.10;99.90
11083;DHT22;5595;50.186;8.468;2023-02-11T10:00:59;6.10;99.90
11083;DHT22;5595;50.186;8.468;2023-02-11T10:03:58;6.10;99.90
11083;DHT22;5595;50.186;8.468;2023-02-11T10:06:37;6.10;99.90
11083;DHT22;5595;50.186;8.468;2023-02-11T10:09:25;6.30;99.90
11083;DHT22;5595;50.186;8.468;2023-02-11T10:12:02;6.10;99.90
11083;DHT22;5595;50.186;8.468;2023-02-11T10:14:55;6.30;99.90
11083;DHT22;5595;50.186;8.468;2023-02-11T10:17:33;6.10;99.90
11083;DHT22;5595;50.186;8.468;2023-02-11T10:20:15;6.00;99.90
11083;DHT22;5595;50.186;8.468;2023-02-11T10:22:46;5.90;99.90
11083;DHT22;5595;50.186;8.468;2023-02-11T10:25:21;5.90;99.90
11083;DHT22;5595;50.186;8.468;2023-02-11T10:27:49;5.70;99.90
11083;DHT22;5595;50.186;8.468;2023-02-11T10:30:25;5.70;99.90
11083;DHT22;5595;50.186;8.468;2023-02-11T10:32:56;5.60;99.90
11083;DHT22;5595;50.186;8.468;2023-02-11T10:35:26;5.70;99.90
11083;DHT22;5595;50.186;8.468;2023-02-11T10:37:53;5.70;99.90
11083;DHT22;5595;50.186;8.468;2023-02-11T10:40:23;6.10;99.90
11083;DHT22;5595;50.186;8.468;2023-02-11T10:42:52;5.80;99.90
11083;DHT22;5595;50.186;8.468;2023-02-11T10:45:24;5.80;99.90
11083;DHT22;5595;50.186;8.468;2023-02-11T10:47:53;5.80;99.90
11083;DHT22;5595;50.186;8.468;2023-02-11T10:50:26;5.90;99.90
11083;DHT22;5595;50.186;8.468;2023-02-11T10:53:10;6.00;99.90
11083;DHT22;5595;50.186;8.468;2023-02-11T10:55:49;6.00;99.90
11083;DHT22;5595;50.186;8.468;2023-02-11T10:58:25;6.10;99.90
11083;DHT22;5595;50.186;8.468;2023-02-11T11:00:55;6.00;99.90
11083;DHT22;5595;50.186;8.468;2023-02-11T11:03:24;6.40;99.90
11083;DHT22;5595;50.186;8.468;2023-02-11T11:05:53;6.10;99.90
11083;DHT22;5595;50.186;8.468;2023-02-11T11:08:21;6.10;99.90
11083;DHT22;5595;50.186;8.468;2023-02-11T11:11:03;5.90;99.90
11083;DHT22;5595;50.186;8.468;2023-02-11T11:13:31;5.80;99.90
11083;DHT22;5595;50.186;8.468;2023-02-11T11:16:15;5.70;99.90
11083;DHT22;5595;50.186;8.468;2023-02-11T11:18:44;5.40;99.90
11083;DHT22;5595;50.186;8.468;2023-02-11T11:21:13;5.50;99.90
11083;DHT22;5595;50.186;8.468;2023-02-11T11:23:48;5.50;99.90
11083;DHT22;5595;50.186;8.468;2023-02-11T11:26:17;5.20;99.90
11083;DHT22;5595;50.186;8.468;2023-02-11T11:28:55;5.40;99.90
11083;DHT22;5595;50.186;8.468;2023-02-11T11:31:24;5.40;99.90
11083;DHT22;5595;50.186;8.468;2023-02-11T11:33:54;5.30;99.90
11083;DHT22;5595;50.186;8.468;2023-02-11T11:36:29;5.40;99.90
11083;DHT22;5595;50.186;8.468;2023-02-11T11:38:59;5.40;99.90
11083;DHT22;5595;50.186;8.468;2023-02-11T11:41:30;5.60;99.90
11083;DHT22;5595;50.186;8.468;2023-02-11T11:44:00;5.50;99.90
11083;DHT22;5595;50.186;8.468;2023-02-11T11:46:31;5.50;99.90
11083;DHT22;5595;50.186;8.468;2023-02-11T11:49:19;5.50;99.90
11083;DHT22;5595;50.186;8.468;2023-02-11T11:51:53;5.60;99.90
11083;DHT22;5595;50.186;8.468;2023-02-11T11:54:22;5.70;99.90
11083;DHT22;5595;50.186;8.468;2023-02-11T11:56:56;5.80;99.90
11083;DHT22;5595;50.186;8.468;2023-02-11T11:59:26;5.90;99.90
11083;DHT22;5595;50.186;8.468;2023-02-11T12:02:13;6.10;99.90
11083;DHT22;5595;50.186;8.468;2023-02-11T12:05:02;6.20;99.90
11083;DHT22;5595;50.186;8.468;2023-02-11T12:07:42;6.30;99.90
11083;DHT22;5595;50.186;8.468;2023-02-11T12:10:29;6.40;99.90
11083;DHT22;5595;50.186;8.468;2023-02-11T12:13:06;6.30;99.90
11083;DHT22;5595;50.186;8.468;2023-02-11T12:15:40;6.30;99.90
11083;DHT22;5595;50.186;8.468;2023-02-11T12:21:21;6.30;99.90
11083;DHT22;5595;50.186;8.468;2023-02-11T12:24:02;5.90;99.90
11083;DHT22;5595;50.186;8.468;2023-02-11T12:26:37;6.30;99.90
11083;DHT22;5595;50.186;8.468;2023-02-11T12:29:16;6.20;99.90
11083;DHT22;5595;50.186;8.468;2023-02-11T12:31:57;6.20;99.90
11083;DHT22;5595;50.186;8.468;2023-02-11T12:34:47;6.40;99.90
11083;DHT22;5595;50.186;8.468;2023-02-11T12:37:29;6.40;99.90
11083;DHT22;5595;50.186;8.468;2023-02-11T12:40:08;6.90;99.90
11083;DHT22;5595;50.186;8.468;2023-02-11T12:42:52;6.50;99.90
11083;DHT22;5595;50.186;8.468;2023-02-11T12:46:06;6.70;99.90
11083;DHT22;5595;50.186;8.468;2023-02-11T12:48:55;6.70;99.90
11083;DHT22;5595;50.186;8.468;2023-02-11T12:51:35;6.30;99.90
11083;DHT22;5595;50.186;8.468;2023-02-11T12:54:19;6.60;99.90
11083;DHT22;5595;50.186;8.468;2023-02-11T12:56:52;6.60;99.90
11083;DHT22;5595;50.186;8.468;2023-02-11T12:59:32;6.60;99.90
11083;DHT22;5595;50.186;8.468;2023-02-11T13:02:09;6.70;99.90
11083;DHT22;5595;50.186;8.468;2023-02-11T13:04:39;6.70;99.90
11083;DHT22;5595;50.186;8.468;2023-02-11T13:07:11;6.70;99.90
11083;DHT22;5595;50.186;8.468;2023-02-11T13:09:43;6.60;99.90
11083;DHT22;5595;50.186;8.468;2023-02-11T13:12:12;6.70;99.90
11083;DHT22;5595;50.186;8.468;2023-02-11T13:15:01;6.70;99.90
11083;DHT22;5595;50.186;8.468;2023-02-11T13:17:35;6.80;99.90
11083;DHT22;5595;50.186;8.468;2023-02-11T13:20:13;6.80;99.90
11083;DHT22;5595;50.186;8.468;2023-02-11T13:22:45;6.70;99.90
11083;DHT22;5595;50.186;8.468;2023-02-11T13:25:21;6.70;99.90
11083;DHT22;5595;50.186;8.468;2023-02-11T13:27:56;6.70;99.90
11083;DHT22;5595;50.186;8.468;2023-02-11T13:30:27;6.60;99.90
11083;DHT22;5595;50.186;8.468;2023-02-11T13:33:19;6.60;99.90
11083;DHT22;5595;50.186;8.468;2023-02-11T13:35:49;6.60;99.90
11083;DHT22;5595;50.186;8.468;2023-02-11T13:38:36;6.60;99.90
11083;DHT22;5595;50.186;8.468;2023-02-11T13:41:05;6.60;99.90
11083;DHT22;5595;50.186;8.468;2023-02-11T13:43:33;6.50;99.90
11083;DHT22;5595;50.186;8.468;2023-02-11T13:46:02;6.50;99.90
11083;DHT22;5595;50.186;8.468;2023-02-11T13:48:33;6.40;99.90
11083;DHT22;5595;50.186;8.468;2023-02-11T13:51:03;6.30;99.90
11083;DHT22;5595;50.186;8.468;2023-02-11T13:53:44;6.40;99.90
11083;DHT22;5595;50.186;8.468;2023-02-11T13:56:23;6.30;99.90
11083;DHT22;5595;50.186;8.468;2023-02-11T13:58:52;6.40;99.90
11083;DHT22;5595;50.186;8.468;2023-02-11T14:01:38;6.40;99.90
11083;DHT22;5595;50.186;8.468;2023-02-11T14:04:19;6.40;99.90
11083;DHT22;5595;50.186;8.468;2023-02-11T14:07:26;6.50;99.90
11083;DHT22;5595;50.186;8.468;2023-02-11T14:13:21;6.30;99.90
11083;DHT22;5595;50.186;8.468;2023-02-11T14:15:48;6.40;99.90
11083;DHT22;5595;50.186;8.468;2023-02-11T14:18:59;6.40;99.90
11083;DHT22;5595;50.186;8.468;2023-02-11T14:21:34;6.40;99.90
11083;DHT22;5595;50.186;8.468;2023-02-11T14:24:39;6.60;99.90
11083;DHT22;5595;50.186;8.468;2023-02-11T14:27:12;6.50;99.90
11083;DHT22;5595;50.186;8.468;2023-02-11T14:29:52;6.50;99.90
11083;DHT22;5595;50.186;8.468;2023-02-11T14:32:34;6.50;99.90
11083;DHT22;5595;50.186;8.468;2023-02-11T14:35:09;6.70;99.90
11083;DHT22;5595;50.186;8.468;2023-02-11T14:37:44;6.50;99.90
11083;DHT22;5595;50.186;8.468;2023-02-11T14:40:23;6.30;99.90
11083;DHT22;5595;50.186;8.468;2023-02-11T14:42:53;6.40;99.90
11083;DHT22;5595;50.186;8.468;2023-02-11T14:45:24;6.50;99.90
11083;DHT22;5595;50.186;8.468;2023-02-11T14:47:57;6.50;99.90
11083;DHT22;5595;50.186;8.468;2023-02-11T14:50:27;6.60;99.90
11083;DHT22;5595;50.186;8.468;2023-02-11T14:53:00;6.60;99.90
11083;DHT22;5595;50.186;8.468;2023-02-11T14:55:31;6.70;99.90
11083;DHT22;5595;50.186;8.468;2023-02-11T14:58:13;6.70;99.90
11083;DHT22;5595;50.186;8.468;2023-02-11T15:00:53;6.70;99.90
11083;DHT22;5595;50.186;8.468;2023-02-11T15:03:32;6.70;99.90
11083;DHT22;5595;50.186;8.468;2023-02-11T15:06:02;6.70;99.90
11083;DHT22;5595;50.186;8.468;2023-02-11T15:08:32;6.60;99.90
11083;DHT22;5595;50.186;8.468;2023-02-11T15:11:01;7.10;99.90
11083;DHT22;5595;50.186;8.468;2023-02-11T15:13:30;6.70;99.90
11083;DHT22;5595;50.186;8.468;2023-02-11T15:15:59;6.70;99.90
11083;DHT22;5595;50.186;8.468;2023-02-11T15:18:34;6.70;99.90
11083;DHT22;5595;50.186;8.468;2023-02-11T15:21:01;6.60;99.90
11083;DHT22;5595;50.186;8.468;2023-02-11T15:23:31;6.30;99.90
11083;DHT22;5595;50.186;8.468;2023-02-11T15:25:58;6.60;99.90
11083;DHT22;5595;50.186;8.468;2023-02-11T15:28:31;6.50;99.90
11083;DHT22;5595;50.186;8.468;2023-02-11T15:31:00;6.20;99.90
11083;DHT22;5595;50.186;8.468;2023-02-11T15:33:28;6.50;99.90
11083;DHT22;5595;50.186;8.468;2023-02-11T15:35:58;6.50;99.90
11083;DHT22;5595;50.186;8.468;2023-02-11T15:38:25;6.50;99.90
11083;DHT22;5595;50.186;8.468;2023-02-11T15:40:55;6.50;99.90
11083;DHT22;5595;50.186;8.468;2023-02-11T15:43:23;6.50;99.90
11083;DHT22;5595;50.186;8.468;2023-02-11T15:45:56;6.50;99.90
11083;DHT22;5595;50.186;8.468;2023-02-11T15:48:27;6.80;99.90
11083;DHT22;5595;50.186;8.468;2023-02-11T15:51:02;6.60;99.90
11083;DHT22;5595;50.186;8.468;2023-02-11T15:53:34;6.60;99.90
11083;DHT22;5595;50.186;8.468;2023-02-11T15:56:09;6.60;99.90
11083;DHT22;5595;50.186;8.468;2023-02-11T15:58:37;6.60;99.90
11083;DHT22;5595;50.186;8.468;2023-02-11T16:01:05;6.60;99.90
11083;DHT22;5595;50.186;8.468;2023-02-11T16:03:32;6.30;99.90
11083;DHT22;5595;50.186;8.468;2023-02-11T16:06:17;6.50;99.90
11083;DHT22;5595;50.186;8.468;2023-02-11T16:08:56;6.70;99.90
11083;DHT22;5595;50.186;8.468;2023-02-11T16:11:27;6.70;99.90
11083;DHT22;5595;50.186;8.468;2023-02-11T16:13:56;6.50;99.90
11083;DHT22;5595;50.186;8.468;2023-02-11T16:16:25;6.60;99.90
11083;DHT22;5595;50.186;8.468;2023-02-11T16:18:54;6.60;99.90
11083;DHT22;5595;50.186;8.468;2023-02-11T16:21:26;6.60;99.90
11083;DHT22;5595;50.186;8.468;2023-02-11T16:23:56;6.60;99.90
11083;DHT22;5595;50.186;8.468;2023-02-11T16:26:28;6.60;99.90
11083;DHT22;5595;50.186;8.468;2023-02-11T16:29:06;6.60;99.90
11083;DHT22;5595;50.186;8.468;2023-02-11T16:31:37;6.60;99.90
11083;DHT22;5595;50.186;8.468;2023-02-11T16:34:15;6.60;99.90
11083;DHT22;5595;50.186;8.468;2023-02-11T16:36:42;6.50;99.90
11083;DHT22;5595;50.186;8.468;2023-02-11T16:39:09;6.50;99.90
11083;DHT22;5595;50.186;8.468;2023-02-11T16:41:37;6.50;99.90